createdAt,value
2018-10-03T00:00:00.371Z,21.67
2018-10-03T00:02:29.449Z,26.57
2018-10-03T00:04:57.834Z,21.13
2018-10-03T00:07:27.245Z,23.97
2018-10-03T00:09:55.735Z,25.57
2018-10-03T00:12:24.739Z,25.33
2018-10-03T00:14:53.307Z,22.97
2018-10-03T00:17:21.673Z,16.53
2018-10-03T00:19:50.027Z,19.17
2018-10-03T00:22:18.802Z,24.63
2018-10-03T00:24:47.202Z,22.13
2018-10-03T00:27:15.539Z,22.47
2018-10-03T00:29:44.485Z,23.80
2018-10-03T00:32:13.077Z,23.20
2018-10-03T00:34:41.500Z,25.43
2018-10-03T00:37:10.122Z,25.73
2018-10-03T00:39:38.514Z,22.50
2018-10-03T00:42:07.119Z,18.90
2018-10-03T00:44:35.536Z,24.57
2018-10-03T00:47:03.970Z,21.30
2018-10-03T00:49:33.114Z,23.73
2018-10-03T00:52:01.529Z,25.33
2018-10-03T00:54:29.872Z,22.80
2018-10-03T00:56:58.211Z,23.97
2018-10-03T00:59:26.646Z,21.37
2018-10-03T01:01:55.023Z,17.63
2018-10-03T01:04:23.343Z,21.90
2018-10-03T01:06:52.148Z,26.67
2018-10-03T01:09:21.123Z,17.03
2018-10-03T01:11:50.000Z,23.10
2018-10-03T01:14:18.380Z,24.57
2018-10-03T01:16:47.606Z,19.60
2018-10-03T01:19:16.008Z,26.03
2018-10-03T01:21:44.365Z,21.70
2018-10-03T01:24:12.753Z,24.57
2018-10-03T01:26:41.177Z,20.40
2018-10-03T01:29:09.754Z,23.40
2018-10-03T01:31:38.186Z,27.00
2018-10-03T01:34:06.594Z,24.47
2018-10-03T01:36:34.994Z,19.70
2018-10-03T01:39:04.729Z,25.17
2018-10-03T01:41:33.116Z,25.47
2018-10-03T01:44:01.457Z,21.63
2018-10-03T01:46:29.875Z,22.07
2018-10-03T01:48:58.438Z,18.90
2018-10-03T01:51:26.806Z,34.43
2018-10-03T01:53:55.331Z,21.27
2018-10-03T01:56:23.723Z,19.27
2018-10-03T01:58:52.118Z,17.17
2018-10-03T02:01:20.632Z,24.23
2018-10-03T02:03:49.961Z,35.17
2018-10-03T02:06:18.294Z,23.40
2018-10-03T02:08:47.233Z,23.87
2018-10-03T02:11:15.602Z,19.03
2018-10-03T02:13:43.995Z,30.30
2018-10-03T02:16:12.349Z,22.47
2018-10-03T02:18:40.691Z,23.43
2018-10-03T02:21:09.041Z,33.37
2018-10-03T02:23:37.468Z,29.57
2018-10-03T02:26:05.838Z,25.27
2018-10-03T02:28:34.224Z,24.57
2018-10-03T02:31:02.744Z,27.90
2018-10-03T02:33:31.179Z,18.23
2018-10-03T02:35:59.628Z,26.03
2018-10-03T02:38:28.619Z,22.60
2018-10-03T02:40:56.946Z,26.33
2018-10-03T02:43:25.338Z,17.67
2018-10-03T02:45:53.687Z,19.57
2018-10-03T02:48:22.138Z,19.43
2018-10-03T02:50:50.495Z,19.40
2018-10-03T02:53:19.326Z,22.73
2018-10-03T02:55:47.806Z,22.37
2018-10-03T02:58:16.187Z,20.60
2018-10-03T03:00:44.848Z,21.93
2018-10-03T03:03:13.221Z,19.77
2018-10-03T03:05:41.610Z,25.40
2018-10-03T03:08:09.922Z,22.80
2018-10-03T03:10:38.262Z,23.53
2018-10-03T03:13:06.623Z,16.73
2018-10-03T03:15:35.060Z,19.97
2018-10-03T03:18:03.515Z,23.17
2018-10-03T03:20:32.015Z,21.13
2018-10-03T03:23:00.373Z,18.17
2018-10-03T03:25:29.229Z,26.80
2018-10-03T03:27:57.631Z,27.57
2018-10-03T03:30:25.952Z,22.87
2018-10-03T03:32:54.694Z,21.00
2018-10-03T03:35:23.228Z,23.33
2018-10-03T03:37:51.618Z,27.67
2018-10-03T03:40:19.989Z,22.53
2018-10-03T03:42:48.323Z,22.73
2018-10-03T03:45:16.970Z,17.87
2018-10-03T03:47:45.288Z,28.13
2018-10-03T03:50:13.653Z,19.77
2018-10-03T03:52:41.951Z,32.37
2018-10-03T03:55:10.263Z,22.50
2018-10-03T03:57:38.642Z,19.83
2018-10-03T04:00:07.010Z,20.00
2018-10-03T04:02:35.411Z,17.87
2018-10-03T04:05:03.777Z,18.57
2018-10-03T04:07:32.157Z,19.57
2018-10-03T04:10:00.541Z,22.60
2018-10-03T04:12:28.952Z,22.57
2018-10-03T04:14:57.334Z,14.93
2018-10-03T04:17:25.711Z,21.53
2018-10-03T04:19:54.372Z,31.63
2018-10-03T04:22:22.922Z,20.80
2018-10-03T04:24:51.293Z,20.37
2018-10-03T04:27:19.633Z,16.30
2018-10-03T04:29:48.018Z,23.83
2018-10-03T04:32:16.353Z,18.33
2018-10-03T04:34:44.736Z,20.53
2018-10-03T04:37:13.174Z,24.00
2018-10-03T04:39:41.561Z,18.77
2018-10-03T04:42:09.930Z,19.23
2018-10-03T04:44:38.374Z,21.27
2018-10-03T04:47:06.686Z,21.40
2018-10-03T04:49:35.058Z,22.13
2018-10-03T04:52:03.430Z,20.50
2018-10-03T04:54:31.802Z,21.60
2018-10-03T04:57:00.187Z,21.23
2018-10-03T04:59:28.587Z,21.47
2018-10-03T05:01:57.018Z,26.70
2018-10-03T05:04:25.546Z,19.57
2018-10-03T05:06:53.904Z,24.07
2018-10-03T05:09:22.332Z,22.03
2018-10-03T05:11:50.745Z,22.97
2018-10-03T05:14:19.506Z,22.97
2018-10-03T05:16:47.870Z,25.23
2018-10-03T05:19:16.213Z,21.60
2018-10-03T05:21:44.649Z,21.77
2018-10-03T05:24:13.039Z,18.30
2018-10-03T05:26:41.390Z,32.17
2018-10-03T05:29:09.769Z,29.43
2018-10-03T05:34:36.922Z,23.50
2018-10-03T05:37:05.275Z,25.13
2018-10-03T05:39:34.171Z,19.67
2018-10-03T05:42:02.519Z,18.77
2018-10-03T05:44:31.021Z,21.43
2018-10-03T05:46:59.395Z,21.80
2018-10-03T05:49:27.949Z,21.97
2018-10-03T05:51:56.367Z,17.43
2018-10-03T05:54:24.745Z,20.57
2018-10-03T05:56:53.109Z,24.17
2018-10-03T05:59:21.709Z,14.00
2018-10-03T06:01:50.551Z,22.40
2018-10-03T06:04:18.930Z,24.77
2018-10-03T06:06:48.995Z,15.17
2018-10-03T06:09:19.419Z,25.07
2018-10-03T06:11:47.991Z,15.93
2018-10-03T06:14:16.425Z,25.33
2018-10-03T06:16:44.860Z,20.63
2018-10-03T06:19:13.668Z,19.53
2018-10-03T06:21:44.040Z,27.87
2018-10-03T06:24:14.130Z,20.03
2018-10-03T06:26:43.111Z,21.97
2018-10-03T06:29:11.874Z,18.57
2018-10-03T06:31:42.035Z,19.93
2018-10-03T06:34:10.419Z,26.53
2018-10-03T06:36:40.431Z,16.73
2018-10-03T06:39:09.828Z,17.17
2018-10-03T06:41:39.694Z,24.47
2018-10-03T06:44:10.405Z,19.67
2018-10-03T06:46:40.645Z,19.67
2018-10-03T06:49:09.092Z,23.87
2018-10-03T06:51:39.748Z,19.93
2018-10-03T06:54:08.224Z,19.73
2018-10-03T06:56:36.618Z,25.40
2018-10-03T06:59:05.933Z,18.17
2018-10-03T07:01:37.087Z,20.87
2018-10-03T07:04:12.311Z,31.97
2018-10-03T07:06:42.060Z,20.10
2018-10-03T07:09:11.281Z,20.00
2018-10-03T07:11:39.949Z,21.20
2018-10-03T07:14:08.862Z,19.63
2018-10-03T07:16:37.991Z,20.43
2018-10-03T07:19:07.312Z,25.43
2018-10-03T07:21:36.493Z,17.00
2018-10-03T07:24:04.958Z,20.07
2018-10-03T07:26:34.339Z,25.57
2018-10-03T07:29:04.224Z,24.37
2018-10-03T07:31:33.069Z,22.57
2018-10-03T07:34:01.876Z,21.87
2018-10-03T07:36:32.234Z,17.93
2018-10-03T07:39:00.970Z,25.20
2018-10-03T07:41:29.980Z,24.47
2018-10-03T07:43:59.236Z,29.20
2018-10-03T07:46:28.136Z,18.20
2018-10-03T07:48:56.852Z,24.97
2018-10-03T07:51:25.844Z,21.60
2018-10-03T07:53:56.006Z,22.13
2018-10-03T07:56:25.735Z,15.27
2018-10-03T07:58:54.962Z,22.80
2018-10-03T08:01:23.991Z,22.20
2018-10-03T08:03:53.004Z,19.03
2018-10-03T08:06:22.829Z,14.93
2018-10-03T08:08:51.734Z,18.43
2018-10-03T08:11:20.804Z,20.10
2018-10-03T08:13:50.197Z,18.20
2018-10-03T08:16:21.661Z,19.47
2018-10-03T08:18:53.310Z,20.87
2018-10-03T08:21:24.555Z,19.80
2018-10-03T08:23:54.613Z,20.33
2018-10-03T08:26:24.097Z,19.97
2018-10-03T08:28:58.186Z,17.90
2018-10-03T08:31:27.765Z,17.23
2018-10-03T08:33:56.973Z,18.17
2018-10-03T08:36:27.794Z,21.37
2018-10-03T08:38:57.395Z,19.37
2018-10-03T08:41:27.076Z,19.80
2018-10-03T08:43:57.444Z,22.67
2018-10-03T08:46:28.078Z,14.97
2018-10-03T08:48:58.112Z,11.93
2018-10-03T08:51:31.667Z,18.23
2018-10-03T08:54:01.096Z,24.80
2018-10-03T08:56:30.047Z,16.53
2018-10-03T08:59:00.530Z,13.83
2018-10-03T09:01:29.327Z,15.37
2018-10-03T09:03:57.970Z,19.47
2018-10-03T09:06:27.303Z,19.23
2018-10-03T09:08:55.903Z,17.60
2018-10-03T09:11:24.665Z,21.40
2018-10-03T09:13:53.224Z,16.47
2018-10-03T09:16:21.855Z,16.07
2018-10-03T09:18:50.902Z,12.33
2018-10-03T09:21:19.821Z,13.90
2018-10-03T09:23:48.442Z,24.17
2018-10-03T09:26:16.939Z,16.97
2018-10-03T09:28:45.515Z,15.13
2018-10-03T09:31:15.076Z,16.63
2018-10-03T09:33:43.700Z,16.33
2018-10-03T09:36:13.107Z,14.57
2018-10-03T09:38:41.717Z,13.23
2018-10-03T09:41:10.468Z,16.43
2018-10-03T09:43:39.180Z,16.50
2018-10-03T09:46:07.783Z,15.77
2018-10-03T09:48:36.547Z,18.97
2018-10-03T09:51:06.028Z,16.37
2018-10-03T09:53:35.142Z,17.17
2018-10-03T09:56:04.066Z,14.37
2018-10-03T09:58:33.020Z,15.43
2018-10-03T10:01:06.743Z,15.17
2018-10-03T10:03:35.614Z,14.23
2018-10-03T10:06:04.509Z,21.63
2018-10-03T10:08:33.676Z,18.17
2018-10-03T10:11:03.971Z,18.77
2018-10-03T10:13:33.729Z,16.20
2018-10-03T10:16:03.040Z,16.77
2018-10-03T10:18:31.975Z,18.20
2018-10-03T10:21:01.247Z,21.57
2018-10-03T10:23:31.057Z,18.53
2018-10-03T10:26:01.590Z,19.33
2018-10-03T10:28:31.288Z,15.43
2018-10-03T10:31:01.831Z,16.23
2018-10-03T10:33:31.509Z,22.83
2018-10-03T10:36:01.821Z,21.17
2018-10-03T10:38:32.377Z,17.23
2018-10-03T10:41:02.380Z,21.07
2018-10-03T10:43:32.676Z,14.00
2018-10-03T10:46:01.805Z,14.80
2018-10-03T10:48:30.816Z,11.50
2018-10-03T10:51:01.995Z,18.47
2018-10-03T10:53:32.172Z,16.40
2018-10-03T10:56:01.951Z,17.23
2018-10-03T10:58:30.942Z,15.27
2018-10-03T11:01:01.298Z,11.00
2018-10-03T11:03:31.617Z,15.87
2018-10-03T11:06:02.495Z,15.13
2018-10-03T11:08:32.580Z,13.47
2018-10-03T11:11:02.305Z,12.20
2018-10-03T11:13:32.169Z,13.80
2018-10-03T11:16:01.909Z,18.27
2018-10-03T11:18:31.435Z,13.60
2018-10-03T11:21:00.452Z,14.57
2018-10-03T11:23:30.853Z,14.30
2018-10-03T11:26:00.866Z,16.67
2018-10-03T11:28:31.256Z,12.57
2018-10-03T11:31:01.488Z,13.93
2018-10-03T11:33:31.111Z,9.47
2018-10-03T11:36:01.007Z,20.17
2018-10-03T11:38:30.750Z,11.73
2018-10-03T11:41:00.356Z,11.47
2018-10-03T11:43:31.051Z,9.83
2018-10-03T11:46:00.580Z,12.60
2018-10-03T11:48:29.954Z,9.93
2018-10-03T11:51:00.052Z,15.57
2018-10-03T11:53:29.167Z,11.13
2018-10-03T11:55:59.222Z,13.10
2018-10-03T11:58:29.141Z,10.27
2018-10-03T12:00:58.389Z,13.53
2018-10-03T12:03:27.333Z,14.63
2018-10-03T12:05:56.211Z,13.57
2018-10-03T12:08:24.948Z,13.93
2018-10-03T12:10:55.502Z,10.13
2018-10-03T12:13:24.755Z,7.00
2018-10-03T12:15:53.787Z,12.20
2018-10-03T12:18:22.716Z,6.70
2018-10-03T12:20:51.646Z,15.37
2018-10-03T12:23:20.470Z,10.77
2018-10-03T12:26:19.633Z,10.73
2018-10-03T12:28:48.089Z,13.47
2018-10-03T12:31:16.415Z,7.57
2018-10-03T12:33:45.553Z,12.23
2018-10-03T12:36:13.854Z,9.40
2018-10-03T12:38:42.296Z,10.50
2018-10-03T12:41:11.388Z,11.77
2018-10-03T12:43:39.874Z,10.27
2018-10-03T12:46:08.316Z,13.27
2018-10-03T12:48:36.701Z,7.77
2018-10-03T12:51:05.123Z,6.77
2018-10-03T12:53:35.013Z,9.77
2018-10-03T12:56:03.498Z,5.33
2018-10-03T12:58:31.886Z,10.70
2018-10-03T13:01:05.687Z,10.33
2018-10-03T13:03:34.048Z,6.67
2018-10-03T13:06:02.418Z,12.47
2018-10-03T13:08:30.810Z,4.03
2018-10-03T13:10:59.357Z,7.83
2018-10-03T13:13:27.713Z,8.17
2018-10-03T13:15:56.141Z,14.13
2018-10-03T13:18:24.964Z,9.93
2018-10-03T13:20:55.454Z,6.87
2018-10-03T13:23:23.849Z,9.17
2018-10-03T13:25:52.214Z,6.03
2018-10-03T13:28:20.600Z,15.87
2018-10-03T13:30:48.993Z,12.80
2018-10-03T13:33:18.106Z,7.90
2018-10-03T13:35:46.501Z,7.03
2018-10-03T13:38:14.866Z,9.53
2018-10-03T13:40:43.331Z,8.37
2018-10-03T13:43:11.719Z,8.77
2018-10-03T13:45:40.203Z,6.40
2018-10-03T13:48:08.647Z,7.13
2018-10-03T13:50:37.114Z,16.93
2018-10-03T13:53:06.725Z,10.70
2018-10-03T13:55:35.273Z,9.83
2018-10-03T14:00:46.470Z,11.27
2018-10-03T14:03:14.955Z,10.37
2018-10-03T14:05:43.399Z,13.77
2018-10-03T14:08:13.592Z,8.33
2018-10-03T14:10:44.161Z,6.77
2018-10-03T14:13:12.548Z,9.83
2018-10-03T14:15:41.192Z,8.80
2018-10-03T14:18:09.593Z,11.03
2018-10-03T14:20:38.282Z,9.67
2018-10-03T14:23:07.164Z,12.30
2018-10-03T14:25:36.595Z,11.43
2018-10-03T14:28:06.420Z,14.27
2018-10-03T14:30:35.450Z,11.33
2018-10-03T14:33:03.881Z,11.67
2018-10-03T14:35:32.297Z,15.87
2018-10-03T14:38:00.697Z,12.73
2018-10-03T14:40:44.066Z,9.20
2018-10-03T14:43:12.508Z,15.67
2018-10-03T14:45:40.867Z,5.67
2018-10-03T14:48:09.242Z,7.23
2018-10-03T14:50:39.017Z,7.70
2018-10-03T14:53:08.609Z,7.53
2018-10-03T14:55:39.249Z,7.33
2018-10-03T14:58:10.027Z,8.78
2018-10-03T15:00:39.369Z,8.60
2018-10-03T15:06:01.534Z,5.03
2018-10-03T15:14:15.255Z,10.47
2018-10-03T15:16:44.691Z,6.57
2018-10-03T15:19:16.067Z,5.93
2018-10-03T15:21:47.200Z,7.33
2018-10-03T15:24:41.936Z,11.57
2018-10-03T15:30:20.790Z,6.43
2018-10-03T15:44:34.245Z,10.33
2018-10-03T15:47:13.790Z,6.57
2018-10-03T15:49:43.358Z,5.63
2018-10-03T15:58:02.861Z,5.47
2018-10-03T16:00:37.405Z,7.17
2018-10-03T16:05:59.585Z,7.17
2018-10-03T16:08:33.383Z,5.13
2018-10-03T16:11:17.519Z,7.07
2018-10-03T16:13:58.369Z,10.77
2018-10-03T16:16:39.089Z,8.07
2018-10-03T16:19:10.284Z,7.90
2018-10-03T16:21:39.801Z,6.07
2018-10-03T16:27:05.086Z,5.90
2018-10-03T16:29:37.198Z,10.63
2018-10-03T16:32:08.547Z,6.73
2018-10-03T16:34:39.157Z,8.73
2018-10-03T16:42:48.994Z,6.77
2018-10-03T16:47:58.648Z,8.57
2018-10-03T16:50:45.796Z,9.23
2018-10-03T16:53:17.705Z,12.10
2018-10-03T16:58:30.251Z,8.77
2018-10-03T17:01:00.813Z,11.40
2018-10-03T17:03:31.729Z,7.83
2018-10-03T17:06:01.043Z,9.30
2018-10-03T17:08:31.900Z,10.53
2018-10-03T17:11:02.766Z,9.03
2018-10-03T17:13:36.118Z,5.73
2018-10-03T17:16:08.357Z,7.67
2018-10-03T17:18:47.590Z,7.20
2018-10-03T17:21:17.266Z,7.70
2018-10-03T17:23:45.678Z,14.87
2018-10-03T17:26:14.769Z,11.33
2018-10-03T17:28:44.299Z,10.10
2018-10-03T17:31:19.264Z,9.67
2018-10-03T17:33:48.913Z,8.50
2018-10-03T17:36:21.013Z,3.93
2018-10-03T17:38:51.493Z,10.83
2018-10-03T17:41:20.671Z,10.25
2018-10-03T17:43:49.162Z,9.43
2018-10-03T17:46:17.549Z,12.33
2018-10-03T17:48:45.996Z,7.30
2018-10-03T17:51:14.391Z,10.13
2018-10-03T17:53:42.730Z,9.27
2018-10-03T17:56:11.121Z,14.67
2018-10-03T17:58:39.476Z,8.60
2018-10-03T18:01:07.884Z,8.40
2018-10-03T18:03:36.365Z,9.47
2018-10-03T18:06:04.778Z,11.47
2018-10-03T18:08:33.233Z,11.77
2018-10-03T18:11:01.661Z,11.17
2018-10-03T18:13:30.258Z,8.03
2018-10-03T18:15:59.172Z,10.57
2018-10-03T18:18:28.127Z,12.30
2018-10-03T18:21:05.474Z,9.20
2018-10-03T18:23:34.502Z,9.47
2018-10-03T18:26:03.230Z,6.20
2018-10-03T18:28:31.931Z,11.50
2018-10-03T18:31:00.738Z,14.03
2018-10-03T18:33:29.165Z,13.27
2018-10-03T18:35:58.163Z,13.87
2018-10-03T18:38:27.252Z,11.90
2018-10-03T18:40:57.152Z,13.27
2018-10-03T18:43:26.396Z,10.47
2018-10-03T18:45:55.064Z,14.07
2018-10-03T18:48:23.635Z,12.63
2018-10-03T18:50:52.217Z,7.53
2018-10-03T18:53:21.354Z,12.23
2018-10-03T18:55:50.284Z,10.90
2018-10-03T18:58:19.391Z,10.37
2018-10-03T19:00:48.682Z,15.00
2018-10-03T19:03:17.668Z,11.50
2018-10-03T19:05:46.178Z,8.30
2018-10-03T19:08:15.111Z,12.70
2018-10-03T19:10:44.791Z,13.80
2018-10-03T19:13:14.529Z,14.93
2018-10-03T19:15:43.109Z,9.97
2018-10-03T19:18:11.626Z,9.87
2018-10-03T19:20:40.871Z,8.90
2018-10-03T19:23:09.681Z,10.70
2018-10-03T19:25:38.489Z,10.43
2018-10-03T19:28:07.723Z,7.37
2018-10-03T19:30:37.048Z,10.77
2018-10-03T19:33:05.655Z,6.07
2018-10-03T19:35:34.142Z,10.90
2018-10-03T19:38:03.146Z,10.90
2018-10-03T19:40:31.727Z,6.87
2018-10-03T19:43:00.731Z,8.90
2018-10-03T19:45:29.443Z,12.23
2018-10-03T19:48:00.518Z,7.80
2018-10-03T19:50:28.932Z,12.53
2018-10-03T19:52:57.344Z,10.03
2018-10-03T19:55:25.730Z,20.63
2018-10-03T19:57:54.679Z,9.23
2018-10-03T20:00:23.104Z,12.63
2018-10-03T20:02:51.589Z,10.77
2018-10-03T20:05:20.116Z,11.50
2018-10-03T20:07:48.562Z,9.43
2018-10-03T20:10:16.975Z,10.80
2018-10-03T20:12:45.496Z,6.73
2018-10-03T20:15:14.030Z,12.60
2018-10-03T20:17:42.476Z,13.17
2018-10-03T20:20:11.265Z,13.87
2018-10-03T20:22:39.842Z,12.03
2018-10-03T20:25:08.362Z,12.23
2018-10-03T20:27:37.577Z,12.13
2018-10-03T20:30:06.465Z,8.27
2018-10-03T20:32:35.383Z,16.37
2018-10-03T20:35:03.891Z,15.13
2018-10-03T20:37:32.310Z,11.43
2018-10-03T20:40:01.162Z,9.67
2018-10-03T20:42:29.859Z,17.67
2018-10-03T20:44:58.798Z,14.13
2018-10-03T20:47:27.459Z,15.80
2018-10-03T20:49:56.802Z,12.53
2018-10-03T20:52:26.799Z,8.07
2018-10-03T20:54:55.254Z,6.30
2018-10-03T20:57:23.671Z,9.97
2018-10-03T20:59:52.138Z,14.63
2018-10-03T21:02:20.481Z,9.20
2018-10-03T21:04:49.689Z,15.27
2018-10-03T21:07:18.781Z,11.50
2018-10-03T21:09:48.382Z,11.60
2018-10-03T21:12:17.539Z,19.97
2018-10-03T21:14:46.542Z,9.60
2018-10-03T21:17:16.145Z,13.40
2018-10-03T21:19:46.862Z,9.33
2018-10-03T21:22:15.364Z,13.53
2018-10-03T21:24:44.906Z,14.03
2018-10-03T21:27:15.725Z,10.60
2018-10-03T21:29:44.666Z,11.27
2018-10-03T21:32:13.091Z,10.27
2018-10-03T21:34:42.335Z,15.67
2018-10-03T21:37:11.361Z,11.87
2018-10-03T21:39:40.535Z,13.33
2018-10-03T21:42:09.622Z,16.43
2018-10-03T21:44:38.025Z,12.87
2018-10-03T21:47:06.597Z,18.07
2018-10-03T21:49:35.982Z,12.80
2018-10-03T21:52:04.385Z,17.40
2018-10-03T21:54:32.881Z,11.07
2018-10-03T21:57:01.228Z,13.57
2018-10-03T21:59:29.742Z,10.67
2018-10-03T22:01:58.792Z,12.90
2018-10-03T22:04:27.160Z,13.53
2018-10-03T22:06:55.517Z,12.80
2018-10-03T22:09:23.895Z,10.43
2018-10-03T22:11:52.526Z,13.27
2018-10-03T22:14:20.945Z,15.67
2018-10-03T22:16:49.515Z,7.30
2018-10-03T22:19:17.926Z,8.63
2018-10-03T22:21:46.335Z,15.23
2018-10-03T22:24:14.758Z,9.17
2018-10-03T22:26:43.408Z,11.73
2018-10-03T22:29:11.785Z,11.37
2018-10-03T22:31:40.942Z,11.27
2018-10-03T22:34:09.671Z,11.23
2018-10-03T22:36:38.303Z,13.27
2018-10-03T22:39:08.379Z,14.03
2018-10-03T22:41:37.047Z,13.13
2018-10-03T22:44:05.450Z,14.00
2018-10-03T22:46:34.005Z,12.23
2018-10-03T22:49:02.337Z,16.83
2018-10-03T22:51:30.716Z,12.60
2018-10-03T22:53:59.043Z,10.20
2018-10-03T22:56:27.453Z,11.77
2018-10-03T22:58:55.802Z,17.27
2018-10-03T23:01:24.175Z,11.33
2018-10-03T23:03:53.071Z,18.80
2018-10-03T23:06:22.921Z,20.17
2018-10-03T23:08:51.681Z,18.57
2018-10-03T23:11:20.560Z,13.17
2018-10-03T23:13:48.922Z,13.17
2018-10-03T23:16:17.524Z,14.93
2018-10-03T23:18:45.839Z,12.23
2018-10-03T23:21:14.213Z,12.97
2018-10-03T23:23:42.797Z,15.90
2018-10-03T23:26:11.166Z,10.00
2018-10-03T23:28:39.555Z,11.90
2018-10-03T23:31:07.955Z,12.07
2018-10-03T23:33:36.398Z,18.20
2018-10-03T23:36:05.043Z,12.40
2018-10-03T23:38:33.493Z,15.77
2018-10-03T23:41:01.893Z,10.67
2018-10-03T23:43:30.236Z,12.87
2018-10-03T23:45:58.849Z,12.13
2018-10-03T23:48:27.215Z,18.03
2018-10-03T23:50:55.617Z,14.50
2018-10-03T23:53:24.217Z,11.77
2018-10-03T23:55:52.948Z,9.90
2018-10-03T23:58:21.303Z,10.57
